Terminal Aerodrome Forecast
Issued by NWS

Home | Current Version | Previous Version | Text Only | Print | Product List | Glossary On
Versions: 1 2 3 4 5 6 7 8 9 10 11 12 13 14 15 16
000
FTUS45 KGGW 252300
TAFSDY
TAF
KSDY 252324Z 2600/2624 28007KT 6SM -SHRA BKN025 OVC029
     FM260200 VRB04KT 5SM -SHRA BKN020
     FM260900 VRB03KT P6SM BKN020
     FM261200 VRB03KT P6SM BKN022
     FM261500 36007KT P6SM BKN025
      AMD LTD TO CLD VIS AND WIND=

USA.gov is the U.S. government's official web portal to all federal, state and local government web resources and services.